createdAt,value
2022-08-16T00:03:46.702Z,3.13
2022-08-16T00:08:50.004Z,2.53
2022-08-16T00:13:56.031Z,3.03
2022-08-16T00:19:01.133Z,2.78
2022-08-16T00:24:06.227Z,2.28
2022-08-16T00:29:17.474Z,2.90
2022-08-16T00:34:41.362Z,2.97
2022-08-16T00:39:47.593Z,2.17
2022-08-16T00:44:55.801Z,2.78
2022-08-16T00:50:00.447Z,2.10
2022-08-16T00:55:03.775Z,4.70
2022-08-16T01:00:13.279Z,3.65
2022-08-16T01:05:25.669Z,2.88
2022-08-16T01:10:33.747Z,3.30
2022-08-16T01:15:46.254Z,2.60
2022-08-16T01:20:56.984Z,3.20
2022-08-16T01:26:33.536Z,2.78
2022-08-16T01:31:31.032Z,3.13
2022-08-16T01:36:35.800Z,3.07
2022-08-16T01:41:42.134Z,3.90
2022-08-16T01:46:49.629Z,3.50
2022-08-16T01:52:00.754Z,3.28
2022-08-16T01:57:31.822Z,3.73
2022-08-16T02:02:42.530Z,3.25
2022-08-16T02:07:46.112Z,3.28
2022-08-16T02:12:56.145Z,3.13
2022-08-16T02:18:05.297Z,2.65
2022-08-16T02:23:11.086Z,2.80
2022-08-16T02:28:17.273Z,3.10
2022-08-16T02:33:24.497Z,3.15
2022-08-16T02:38:31.615Z,2.88
2022-08-16T02:43:38.401Z,2.70
2022-08-16T02:48:47.520Z,3.97
2022-08-16T02:53:54.341Z,2.77
2022-08-16T02:59:02.851Z,2.70
2022-08-16T03:04:39.979Z,3.30
2022-08-16T03:09:40.235Z,3.30
2022-08-16T03:14:49.220Z,3.50
2022-08-16T03:19:59.630Z,3.08
2022-08-16T03:25:12.586Z,2.70
2022-08-16T03:30:31.635Z,3.43
2022-08-16T03:35:40.336Z,4.60
2022-08-16T03:40:59.775Z,3.63
2022-08-16T03:46:06.446Z,4.10
2022-08-16T03:51:13.278Z,3.80
2022-08-16T03:56:27.409Z,3.25
2022-08-16T04:01:36.029Z,5.15
2022-08-16T04:06:40.479Z,3.80
2022-08-16T04:11:43.950Z,3.97
2022-08-16T04:16:48.633Z,3.83
2022-08-16T04:22:09.084Z,4.38
2022-08-16T04:27:24.373Z,3.20
2022-08-16T04:32:29.545Z,4.35
2022-08-16T04:37:33.093Z,3.30
2022-08-16T04:42:53.148Z,3.13
2022-08-16T04:48:03.141Z,3.87
2022-08-16T04:53:15.858Z,5.00
2022-08-16T04:58:43.768Z,3.30
2022-08-16T05:04:00.378Z,4.35
2022-08-16T05:09:09.806Z,4.37
2022-08-16T05:14:20.320Z,3.50
2022-08-16T05:19:39.396Z,3.63
2022-08-16T05:24:54.906Z,3.45
2022-08-16T05:30:01.244Z,2.95
2022-08-16T05:35:12.668Z,3.03
2022-08-16T05:40:32.725Z,2.30
2022-08-16T05:45:36.973Z,3.17
2022-08-16T05:50:42.685Z,2.00
2022-08-16T05:55:46.455Z,2.83
2022-08-16T06:00:52.725Z,2.00
2022-08-16T06:06:00.556Z,2.22
2022-08-16T06:11:10.311Z,1.80
2022-08-16T06:16:18.309Z,1.67
2022-08-16T06:21:26.801Z,1.75
2022-08-16T06:26:57.426Z,2.10
2022-08-16T06:32:06.555Z,1.63
2022-08-16T06:37:12.042Z,2.42
2022-08-16T06:42:18.334Z,1.77
2022-08-16T06:47:56.603Z,1.67
2022-08-16T06:53:09.086Z,2.95
2022-08-16T06:58:31.731Z,1.98
2022-08-16T07:03:55.067Z,2.53
2022-08-16T07:09:02.877Z,2.10
2022-08-16T07:14:25.091Z,3.05
2022-08-16T07:20:29.294Z,2.83
2022-08-16T07:25:02.375Z,1.92
2022-08-16T07:30:38.985Z,1.88
2022-08-16T07:35:34.627Z,1.83
2022-08-16T07:40:59.653Z,1.80
2022-08-16T07:46:03.794Z,1.70
2022-08-16T07:51:11.781Z,2.13
2022-08-16T07:56:19.726Z,1.63
2022-08-16T08:01:24.812Z,2.22
2022-08-16T08:06:34.771Z,2.10
2022-08-16T08:12:00.009Z,2.50
2022-08-16T08:17:08.471Z,2.15
2022-08-16T08:22:19.250Z,3.20
2022-08-16T08:27:32.767Z,2.33
2022-08-16T08:32:51.069Z,2.10
2022-08-16T08:38:02.208Z,3.20
2022-08-16T08:43:18.395Z,2.22
2022-08-16T08:48:36.878Z,2.13
2022-08-16T08:53:57.954Z,3.15
2022-08-16T08:59:13.510Z,2.10
2022-08-16T09:04:24.540Z,2.85
2022-08-16T09:09:33.389Z,2.17
2022-08-16T09:14:49.317Z,1.77
2022-08-16T09:19:57.203Z,2.00
2022-08-16T09:25:09.689Z,2.03
2022-08-16T09:30:34.535Z,2.10
2022-08-16T09:35:42.722Z,3.65
2022-08-16T09:40:48.197Z,2.20
2022-08-16T09:45:54.578Z,1.80
2022-08-16T09:50:58.457Z,2.40
2022-08-16T09:56:02.256Z,2.30
2022-08-16T10:01:08.430Z,2.03
2022-08-16T10:06:12.050Z,1.70
2022-08-16T10:11:32.880Z,2.00
2022-08-16T10:16:59.918Z,2.30
2022-08-16T10:22:05.686Z,2.70
2022-08-16T10:27:26.152Z,2.50
2022-08-16T10:32:32.551Z,2.53
2022-08-16T10:37:36.657Z,2.25
2022-08-16T10:42:40.938Z,1.90
2022-08-16T10:47:45.723Z,2.95
2022-08-16T10:52:49.947Z,2.90
2022-08-16T10:57:56.776Z,1.80
2022-08-16T11:03:04.686Z,1.50
2022-08-16T11:08:11.830Z,1.47
2022-08-16T11:19:03.742Z,2.53
2022-08-16T11:24:13.835Z,1.97
2022-08-16T11:29:31.997Z,2.10
2022-08-16T11:35:06.090Z,3.60
2022-08-16T11:40:00.842Z,1.92
2022-08-16T11:45:05.656Z,2.05
2022-08-16T11:50:12.345Z,2.30
2022-08-16T11:55:15.692Z,2.30
2022-08-16T12:00:33.663Z,2.37
2022-08-16T12:05:45.984Z,2.30
2022-08-16T12:10:49.384Z,1.95
2022-08-16T12:15:52.636Z,2.25
2022-08-16T12:20:58.341Z,2.80
2022-08-16T12:26:05.899Z,2.83
2022-08-16T12:31:14.322Z,1.70
2022-08-16T12:36:19.047Z,2.10
2022-08-16T12:41:25.886Z,1.67
2022-08-16T12:46:31.676Z,2.10
2022-08-16T12:51:58.019Z,1.80
2022-08-16T12:57:01.938Z,2.67
2022-08-16T13:02:06.522Z,3.78
2022-08-16T13:07:17.837Z,1.60
2022-08-16T13:12:24.880Z,1.80
2022-08-16T13:17:29.689Z,1.75
2022-08-16T13:22:35.471Z,1.85
2022-08-16T13:28:02.605Z,2.17
2022-08-16T13:33:02.362Z,1.45
2022-08-16T13:38:24.882Z,2.70
2022-08-16T13:43:32.484Z,1.33
2022-08-16T13:48:43.933Z,2.07
2022-08-16T13:53:59.777Z,1.70
2022-08-16T13:59:19.919Z,2.10
2022-08-16T14:04:26.427Z,1.87
2022-08-16T14:09:32.644Z,2.53
2022-08-16T14:14:36.249Z,1.98
2022-08-16T14:19:44.932Z,2.03
2022-08-16T14:24:52.547Z,5.25
2022-08-16T14:29:59.175Z,2.05
2022-08-16T14:35:08.330Z,1.80
2022-08-16T14:40:16.765Z,1.80
2022-08-16T14:45:22.852Z,2.57
2022-08-16T14:50:27.864Z,2.15
2022-08-16T14:55:36.526Z,2.58
2022-08-16T15:00:39.922Z,2.40
2022-08-16T15:05:43.518Z,3.42
2022-08-16T15:10:49.741Z,2.38
2022-08-16T15:15:58.989Z,2.10
2022-08-16T15:21:08.504Z,3.17
2022-08-16T15:26:42.858Z,3.75
2022-08-16T15:31:41.543Z,1.65
2022-08-16T15:36:44.886Z,4.22
2022-08-16T15:42:02.785Z,3.70
2022-08-16T15:47:09.427Z,3.03
2022-08-16T15:52:18.382Z,2.80
2022-08-16T15:57:26.841Z,2.13
2022-08-16T16:02:31.407Z,1.92
2022-08-16T16:07:37.730Z,2.40
2022-08-16T16:12:51.656Z,2.33
2022-08-16T16:17:58.866Z,1.50
2022-08-16T16:23:04.008Z,2.80
2022-08-16T16:28:46.015Z,2.20
2022-08-16T16:33:45.215Z,2.10
2022-08-16T16:38:49.001Z,3.28
2022-08-16T16:43:55.811Z,1.95
2022-08-16T16:49:00.517Z,2.40
2022-08-16T16:54:08.626Z,2.60
2022-08-16T16:59:13.251Z,4.22
2022-08-16T17:04:20.041Z,4.35
2022-08-16T17:09:25.585Z,2.85
2022-08-16T17:14:32.689Z,2.00
2022-08-16T17:19:41.782Z,3.53
2022-08-16T17:24:50.619Z,2.35
2022-08-16T17:29:56.879Z,2.65
2022-08-16T17:35:03.949Z,2.40
2022-08-16T17:40:46.674Z,2.70
2022-08-16T17:45:39.360Z,3.30
2022-08-16T17:50:43.731Z,2.90
2022-08-16T17:55:50.538Z,2.55
2022-08-16T18:00:58.016Z,2.33
2022-08-16T18:06:01.356Z,4.07
2022-08-16T18:11:04.902Z,3.65
2022-08-16T18:16:14.701Z,3.08
2022-08-16T18:21:35.322Z,3.13
2022-08-16T18:26:39.311Z,2.17
2022-08-16T18:31:43.980Z,3.00
2022-08-16T18:36:48.153Z,3.55
2022-08-16T18:41:52.780Z,2.53
2022-08-16T18:46:58.070Z,3.60
2022-08-16T18:52:02.592Z,3.65
2022-08-16T18:57:08.098Z,3.20
2022-08-16T19:02:55.955Z,4.50
2022-08-16T19:07:38.137Z,4.18
2022-08-16T19:12:42.601Z,5.13
2022-08-16T19:17:47.696Z,6.63
2022-08-16T19:23:05.650Z,3.70
2022-08-16T19:28:49.359Z,5.90
2022-08-16T19:33:41.130Z,4.70
2022-08-16T19:38:57.712Z,3.85
2022-08-16T19:44:09.840Z,3.57
2022-08-16T19:49:16.559Z,5.73
2022-08-16T19:54:20.662Z,2.85
2022-08-16T19:59:39.410Z,2.70
2022-08-16T20:04:46.543Z,3.93
2022-08-16T20:09:51.643Z,4.78
2022-08-16T20:14:55.576Z,3.85
2022-08-16T20:20:01.475Z,4.10
2022-08-16T20:25:08.838Z,6.68
2022-08-16T20:30:15.836Z,5.27
2022-08-16T20:35:22.953Z,2.67
2022-08-16T20:40:34.773Z,4.63
2022-08-16T20:45:39.866Z,4.07
2022-08-16T20:50:45.284Z,3.30
2022-08-16T20:55:49.086Z,3.40
2022-08-16T21:00:52.516Z,4.80
2022-08-16T21:05:59.784Z,4.73
2022-08-16T21:11:05.513Z,4.93
2022-08-16T21:16:08.876Z,3.78
2022-08-16T21:21:13.546Z,4.18
2022-08-16T21:26:16.812Z,4.72
2022-08-16T21:31:20.277Z,5.70
2022-08-16T21:36:35.248Z,7.70
2022-08-16T21:41:39.553Z,11.50
2022-08-16T21:46:42.866Z,11.80
2022-08-16T21:51:47.819Z,15.07
2022-08-16T21:56:51.374Z,11.63
2022-08-16T22:01:54.964Z,5.93
2022-08-16T22:06:59.641Z,5.57
2022-08-16T22:12:02.990Z,4.97
2022-08-16T22:17:06.415Z,8.10
2022-08-16T22:22:12.874Z,3.20
2022-08-16T22:27:16.175Z,4.30
2022-08-16T22:32:19.471Z,3.05
2022-08-16T22:37:24.126Z,4.38
2022-08-16T22:42:30.070Z,5.30
2022-08-16T22:47:33.333Z,4.75
2022-08-16T22:52:55.687Z,5.43
2022-08-16T22:58:00.301Z,4.43
2022-08-16T23:03:06.286Z,4.47
2022-08-16T23:08:39.624Z,6.73
2022-08-16T23:13:50.731Z,3.33
2022-08-16T23:18:57.256Z,3.85
2022-08-16T23:24:02.216Z,4.10
2022-08-16T23:29:06.455Z,3.80
2022-08-16T23:34:26.918Z,3.72
2022-08-16T23:39:31.805Z,3.50
2022-08-16T23:44:58.649Z,4.28
2022-08-16T23:50:03.412Z,4.60
2022-08-16T23:55:10.201Z,4.72
